Time;durP1;ratioP1;P1;durP2;ratioP2;P2;SDS_P1;SDS_P2;PMS_P1;PMS_P2;Temp;Humidity;BMP_temperature;BMP_pressure;BME280_temperature;BME280_humidity;BME280_pressure;Samples;Min_cycle;Max_cycle;Signal;HPM_P1;HPM_P2
2022/09/03 00:01:39;;;;;;;10.55;5.25;;;22.60;70.10;;;;;;1892176;76;20973;-69
2022/09/03 00:04:16;;;;;;;12.82;4.97;;;22.60;70.50;;;;;;1891998;76;20957;-69
2022/09/03 00:06:48;;;;;;;9.53;5.60;;;22.60;71.00;;;;;;1891944;75;20965;-69
2022/09/03 00:09:28;;;;;;;10.28;4.92;;;22.60;71.10;;;;;;1892028;76;21005;-69
2022/09/03 00:12:18;;;;;;;9.95;5.37;;;22.60;70.90;;;;;;1892135;76;21031;-69
2022/09/03 00:14:52;;;;;;;12.50;5.00;;;22.60;71.10;;;;;;1892020;76;20966;-68
2022/09/03 00:17:24;;;;;;;9.73;5.12;;;22.60;71.30;;;;;;1892153;76;20965;-68
2022/09/03 00:19:58;;;;;;;12.73;5.33;;;22.50;71.40;;;;;;1891951;76;21044;-68
2022/09/03 00:22:33;;;;;;;8.93;5.28;;;22.60;71.70;;;;;;1892180;76;21035;-68
2022/09/03 00:25:05;;;;;;;10.48;5.17;;;22.60;71.40;;;;;;1892163;76;21063;-68
2022/09/03 00:27:36;;;;;;;9.40;4.83;;;22.60;71.40;;;;;;1892072;76;20966;-68
2022/09/03 00:30:11;;;;;;;7.87;5.33;;;22.60;71.40;;;;;;1892016;76;20977;-68
2022/09/03 00:32:46;;;;;;;;;;;22.60;71.20;;;;;;1894923;76;20945;-68
2022/09/03 00:35:32;;;;;;;10.03;5.15;;;22.60;71.30;;;;;;1892040;76;20125;-68
2022/09/03 00:38:01;;;;;;;11.38;5.90;;;22.60;71.20;;;;;;1891995;76;21031;-68
2022/09/03 00:40:48;;;;;;;7.37;4.95;;;22.60;71.60;;;;;;1891980;76;21017;-68
2022/09/03 00:43:25;;;;;;;8.73;5.92;;;22.70;71.60;;;;;;1892124;76;20969;-68
2022/09/03 00:46:01;;;;;;;14.73;5.53;;;22.70;71.20;;;;;;1891086;76;21459;-68
2022/09/03 00:48:32;;;;;;;7.28;5.30;;;22.60;71.00;;;;;;1892008;76;20950;-68
2022/09/03 00:51:28;;;;;;;8.63;4.83;;;22.60;71.00;;;;;;1887435;75;20969;-68
2022/09/03 00:53:57;;;;;;;10.45;5.20;;;22.60;71.20;;;;;;1896204;75;21017;-68
2022/09/03 00:56:26;;;;;;;;;;;22.50;71.40;;;;;;1901110;75;20965;-68
2022/09/03 00:59:10;;;;;;;9.08;5.10;;;22.50;71.20;;;;;;1898098;75;20409;-68
2022/09/03 01:01:56;;;;;;;11.00;5.53;;;22.50;71.10;;;;;;1897040;75;21414;-68
2022/09/03 01:04:34;;;;;;;11.20;5.05;;;22.40;71.40;;;;;;1898578;75;20993;-68
2022/09/03 01:07:32;;;;;;;15.72;7.12;;;22.40;71.60;;;;;;1897702;75;20977;-68
2022/09/03 01:10:26;;;;;;;13.75;6.78;;;22.50;71.10;;;;;;1898595;75;21004;-68
2022/09/03 01:12:58;;;;;;;15.20;5.72;;;22.40;71.10;;;;;;1898627;75;20996;-68
2022/09/03 01:15:32;;;;;;;14.87;5.28;;;22.40;71.30;;;;;;1898290;75;20961;-68
2022/09/03 01:18:20;;;;;;;12.88;6.28;;;22.40;71.60;;;;;;1895943;75;21545;-68
2022/09/03 01:21:03;;;;;;;12.88;5.95;;;22.40;71.50;;;;;;1898374;75;21062;-69
2022/09/03 01:23:53;;;;;;;10.78;5.70;;;22.30;71.10;;;;;;1897215;75;21039;-68
2022/09/03 01:26:44;;;;;;;9.78;5.87;;;22.30;70.60;;;;;;1898479;75;20973;-68
2022/09/03 01:29:34;;;;;;;8.88;5.10;;;22.20;70.80;;;;;;1898522;75;21052;-68
2022/09/03 01:32:18;;;;;;;11.80;5.35;;;22.10;71.30;;;;;;1898261;75;20953;-68
2022/09/03 01:35:11;;;;;;;14.30;4.85;;;22.10;71.50;;;;;;1897886;75;20977;-68
2022/09/03 01:37:48;;;;;;;5.47;4.12;;;22.10;71.40;;;;;;1898568;75;20949;-68
2022/09/03 01:40:29;;;;;;;12.35;5.58;;;22.10;71.80;;;;;;1897489;75;20957;-68
2022/09/03 01:43:07;;;;;;;10.48;4.80;;;22.00;71.10;;;;;;1898123;74;20989;-68
2022/09/03 01:45:59;;;;;;;13.85;4.85;;;22.00;71.30;;;;;;1898534;75;21001;-68
2022/09/03 01:48:45;;;;;;;7.22;4.40;;;22.00;71.90;;;;;;1898107;75;21039;-68
2022/09/03 01:51:19;;;;;;;15.25;4.85;;;22.00;72.00;;;;;;1898476;75;20954;-68
2022/09/03 01:54:04;;;;;;;;;;;22.00;71.90;;;;;;1901366;75;21075;-68
2022/09/03 01:56:44;;;;;;;8.50;4.10;;;22.00;71.80;;;;;;1897704;75;20371;-68
2022/09/03 01:59:22;;;;;;;6.17;3.90;;;22.00;71.80;;;;;;1897825;75;21051;-68
2022/09/03 02:02:08;;;;;;;6.70;3.80;;;22.00;72.20;;;;;;1898483;75;20977;-68
2022/09/03 02:04:37;;;;;;;7.47;4.08;;;22.00;72.30;;;;;;1898499;75;20965;-68
2022/09/03 02:07:06;;;;;;;7.72;4.25;;;22.00;72.20;;;;;;1898530;75;20989;-68
2022/09/03 02:09:35;;;;;;;6.25;4.03;;;22.00;72.20;;;;;;1898466;75;20969;-69
2022/09/03 02:12:07;;;;;;;7.28;3.95;;;22.00;71.90;;;;;;1898628;75;20953;-69
2022/09/03 02:14:36;;;;;;;7.35;4.35;;;21.90;71.90;;;;;;1898695;75;20973;-69
2022/09/03 02:17:06;;;;;;;6.97;4.33;;;21.90;72.00;;;;;;1898616;75;21004;-68
2022/09/03 02:19:36;;;;;;;7.72;4.15;;;21.90;72.40;;;;;;1898660;75;21442;-69
2022/09/03 02:22:06;;;;;;;11.35;4.67;;;21.90;72.80;;;;;;1898604;75;20960;-69
2022/09/03 02:24:34;;;;;;;8.28;4.25;;;21.90;72.70;;;;;;1898590;75;21439;-69
2022/09/03 02:27:03;;;;;;;6.45;4.60;;;21.90;73.00;;;;;;1898663;75;20973;-69
2022/09/03 02:29:33;;;;;;;8.20;4.00;;;21.80;72.90;;;;;;1898611;75;20977;-69
2022/09/03 02:32:02;;;;;;;7.25;3.52;;;21.80;73.00;;;;;;1898651;75;21368;-68
2022/09/03 02:34:31;;;;;;;7.85;3.72;;;21.80;73.50;;;;;;1898603;75;20973;-69
2022/09/03 02:37:00;;;;;;;6.65;4.40;;;21.80;73.70;;;;;;1898607;75;21038;-69
2022/09/03 02:39:29;;;;;;;7.53;4.03;;;21.80;73.40;;;;;;1898654;75;21040;-69
2022/09/03 02:41:59;;;;;;;10.18;4.33;;;21.90;73.30;;;;;;1898569;75;21428;-69
2022/09/03 02:44:37;;;;;;;5.90;4.17;;;21.90;73.40;;;;;;1898574;75;20980;-69
2022/09/03 02:47:08;;;;;;;8.08;3.70;;;21.90;73.40;;;;;;1898668;75;20977;-69
2022/09/03 02:49:37;;;;;;;8.00;4.00;;;21.80;73.40;;;;;;1898601;75;21094;-69
2022/09/03 02:52:10;;;;;;;8.35;4.35;;;21.70;73.80;;;;;;1898744;75;20949;-69
2022/09/03 02:54:40;;;;;;;12.10;4.10;;;21.70;74.30;;;;;;1894168;75;21458;-69
2022/09/03 02:57:11;;;;;;;6.50;3.65;;;21.70;74.20;;;;;;1892092;76;21039;-69
2022/09/03 02:59:40;;;;;;;15.88;5.42;;;21.70;74.10;;;;;;1892045;76;21493;-68
2022/09/03 03:02:10;;;;;;;13.70;4.42;;;21.60;74.30;;;;;;1892022;76;21023;-69
2022/09/03 03:04:39;;;;;;;11.00;4.65;;;21.60;74.20;;;;;;1892157;76;21372;-69
2022/09/03 03:07:08;;;;;;;6.20;3.45;;;21.60;74.30;;;;;;1892029;76;20969;-69
2022/09/03 03:09:37;;;;;;;8.23;4.47;;;21.60;74.40;;;;;;1892033;76;20969;-69
2022/09/03 03:12:08;;;;;;;15.20;4.87;;;21.60;74.40;;;;;;1892065;76;21050;-68
2022/09/03 03:14:36;;;;;;;11.78;4.00;;;21.60;74.40;;;;;;1891992;76;21055;-68
2022/09/03 03:17:05;;;;;;;10.65;3.92;;;21.50;74.70;;;;;;1892062;76;21420;-69
2022/09/03 03:19:34;;;;;;;17.57;5.10;;;21.60;75.40;;;;;;1892096;76;20965;-68
2022/09/03 03:22:03;;;;;;;14.07;5.30;;;21.60;75.40;;;;;;1891923;76;21071;-68
2022/09/03 03:24:32;;;;;;;12.98;5.08;;;21.60;74.70;;;;;;1892020;76;20977;-69
2022/09/03 03:27:07;;;;;;;14.03;4.85;;;21.60;74.60;;;;;;1892028;76;21489;-69
2022/09/03 03:29:31;;;;;;;12.33;4.53;;;21.60;74.70;;;;;;1891242;75;20985;-69
2022/09/03 03:32:00;;;;;;;10.98;4.85;;;21.60;74.70;;;;;;1892119;76;20941;-69
2022/09/03 03:34:29;;;;;;;9.98;4.35;;;21.60;74.80;;;;;;1892047;76;21027;-69
2022/09/03 03:36:58;;;;;;;11.95;4.80;;;21.60;74.90;;;;;;1892045;76;20985;-69
2022/09/03 03:39:27;;;;;;;6.35;4.25;;;21.70;75.00;;;;;;1892060;76;21041;-69
2022/09/03 03:41:56;;;;;;;11.73;6.05;;;21.70;75.00;;;;;;1891969;76;21039;-69
2022/09/03 03:44:25;;;;;;;14.23;5.40;;;21.70;74.80;;;;;;1892045;76;20996;-68
2022/09/03 03:46:54;;;;;;;11.80;5.10;;;21.80;74.70;;;;;;1892019;76;21470;-69
2022/09/03 03:49:23;;;;;;;12.82;5.53;;;21.80;74.10;;;;;;1892067;76;21038;-69
2022/09/03 03:51:52;;;;;;;7.25;4.40;;;21.90;73.70;;;;;;1892077;76;21075;-68
2022/09/03 03:54:21;;;;;;;11.43;4.30;;;21.80;73.30;;;;;;1891965;75;21009;-68
2022/09/03 03:56:50;;;;;;;9.90;3.98;;;21.90;73.50;;;;;;1892003;76;21043;-68
2022/09/03 03:59:19;;;;;;;4.40;3.62;;;21.90;73.00;;;;;;1892078;76;20973;-68
2022/09/03 04:01:49;;;;;;;13.45;4.45;;;21.90;72.40;;;;;;1891988;76;21414;-68
2022/09/03 04:04:18;;;;;;;12.20;4.00;;;22.00;71.00;;;;;;1891973;76;20949;-68
2022/09/03 04:06:47;;;;;;;8.73;4.15;;;21.90;70.30;;;;;;1892084;76;20969;-68
2022/09/03 04:09:16;;;;;;;6.60;3.90;;;21.90;70.20;;;;;;1892074;76;21406;-68
2022/09/03 04:11:44;;;;;;;12.47;3.50;;;22.00;69.50;;;;;;1892073;76;21040;-68
2022/09/03 04:14:13;;;;;;;7.87;4.10;;;22.00;69.20;;;;;;1891993;76;20961;-68
2022/09/03 04:16:45;;;;;;;10.15;4.75;;;22.00;69.60;;;;;;1891995;76;21452;-68
2022/09/03 04:19:13;;;;;;;10.13;5.95;;;22.00;69.70;;;;;;1891922;73;21454;-68
2022/09/03 04:21:42;;;;;;;11.28;4.35;;;22.00;70.20;;;;;;1891959;76;20953;-68
2022/09/03 04:24:11;;;;;;;9.03;3.70;;;22.10;69.90;;;;;;1891928;76;20977;-68
2022/09/03 04:26:40;;;;;;;5.72;3.30;;;22.10;68.40;;;;;;1892139;76;21448;-68
2022/09/03 04:29:10;;;;;;;7.37;3.42;;;22.10;67.60;;;;;;1891978;76;20988;-68
2022/09/03 04:32:51;;;;;;;6.55;3.20;;;22.00;67.40;;;;;;1892049;76;21473;-68
2022/09/03 04:34:09;;;;;;;10.78;5.03;;;22.00;68.00;;;;;;1886549;76;21450;-68
2022/09/03 04:36:38;;;;;;;5.85;3.05;;;22.00;68.30;;;;;;1892010;76;20986;-68
2022/09/03 04:39:07;;;;;;;5.42;2.87;;;22.10;68.60;;;;;;1891948;76;20985;-68
2022/09/03 04:41:36;;;;;;;11.03;3.08;;;22.20;67.70;;;;;;1891982;76;21412;-68
2022/09/03 04:44:05;;;;;;;9.30;3.08;;;22.30;67.40;;;;;;1891947;76;20981;-68
2022/09/03 04:46:34;;;;;;;5.35;2.75;;;22.30;66.80;;;;;;1891988;76;21028;-68
2022/09/03 04:49:03;;;;;;;6.67;2.77;;;22.40;67.00;;;;;;1892046;76;21047;-68
2022/09/03 04:51:32;;;;;;;9.90;3.42;;;22.40;66.80;;;;;;1892002;76;20973;-68
2022/09/03 04:54:01;;;;;;;8.18;3.40;;;22.50;67.10;;;;;;1891979;76;20977;-68
2022/09/03 04:56:33;;;;;;;16.60;3.02;;;22.50;67.00;;;;;;1897775;75;21068;-67
2022/09/03 04:59:05;;;;;;;5.62;2.92;;;22.60;65.70;;;;;;1898529;75;20988;-68
2022/09/03 05:01:35;;;;;;;12.78;3.02;;;22.60;65.60;;;;;;1898471;75;21454;-68
2022/09/03 05:04:05;;;;;;;14.03;3.47;;;22.60;65.60;;;;;;1898528;75;20941;-67
2022/09/03 05:06:35;;;;;;;15.18;5.22;;;22.60;65.60;;;;;;1898507;75;21443;-68
2022/09/03 05:09:05;;;;;;;11.08;4.00;;;22.70;65.50;;;;;;1898593;75;21023;-68
2022/09/03 05:11:34;;;;;;;11.05;4.20;;;22.80;65.30;;;;;;1898440;75;21046;-67
2022/09/03 05:14:04;;;;;;;9.10;3.60;;;22.80;65.40;;;;;;1898573;75;20969;-68
2022/09/03 05:16:33;;;;;;;9.80;3.25;;;22.80;65.40;;;;;;1898522;75;21404;-68
2022/09/03 05:19:04;;;;;;;4.40;2.72;;;22.90;64.80;;;;;;1898525;75;20969;-68
2022/09/03 05:21:34;;;;;;;5.92;2.60;;;22.90;64.50;;;;;;1898451;75;20941;-68
2022/09/03 05:24:04;;;;;;;5.20;2.90;;;23.00;63.90;;;;;;1898497;75;20957;-67
2022/09/03 05:26:36;;;;;;;3.37;2.40;;;23.00;63.00;;;;;;1898494;75;21023;-68
2022/09/03 05:29:06;;;;;;;7.75;2.80;;;22.90;63.70;;;;;;1898458;75;21110;-67
2022/09/03 05:31:41;;;;;;;11.48;3.47;;;23.00;63.70;;;;;;1898470;75;21071;-67
2022/09/03 05:34:10;;;;;;;6.37;2.50;;;23.00;63.00;;;;;;1898407;75;21052;-68
2022/09/03 05:36:39;;;;;;;4.00;2.40;;;22.90;62.60;;;;;;1898486;75;20953;-68
2022/09/03 05:39:08;;;;;;;7.58;2.35;;;22.90;63.00;;;;;;1898408;75;21027;-67
2022/09/03 05:41:37;;;;;;;8.00;2.87;;;22.90;62.70;;;;;;1898454;75;20988;-67
2022/09/03 05:44:06;;;;;;;4.75;2.12;;;23.00;62.30;;;;;;1898451;75;20969;-67
2022/09/03 05:46:37;;;;;;;3.40;2.08;;;23.00;62.30;;;;;;1898572;75;20977;-68
2022/09/03 05:49:07;;;;;;;7.37;2.80;;;23.00;62.50;;;;;;1898603;75;21107;-67
2022/09/03 05:51:42;;;;;;;5.97;2.80;;;23.10;62.40;;;;;;1898635;75;20968;-67
2022/09/03 05:54:07;;;;;;;6.28;2.67;;;23.20;62.60;;;;;;1897763;75;21055;-67
2022/09/03 05:56:43;;;;;;;7.78;2.17;;;23.20;61.80;;;;;;1898353;75;21013;-68
2022/09/03 05:59:10;;;;;;;3.87;2.67;;;23.30;62.00;;;;;;1897818;75;21447;-67
2022/09/03 06:01:44;;;;;;;8.38;2.55;;;23.30;62.00;;;;;;1898267;75;21052;-67
2022/09/03 06:04:15;;;;;;;5.58;2.50;;;23.40;62.10;;;;;;1898556;75;21423;-67
2022/09/03 06:06:46;;;;;;;5.62;2.60;;;23.50;61.40;;;;;;1898402;75;20996;-67
2022/09/03 06:09:17;;;;;;;3.55;2.62;;;23.60;61.70;;;;;;1898361;75;20965;-67
2022/09/03 06:11:48;;;;;;;3.85;2.20;;;23.70;60.90;;;;;;1898304;75;20973;-67
2022/09/03 06:14:17;;;;;;;4.53;2.10;;;23.80;61.10;;;;;;1898432;75;21399;-67
2022/09/03 06:16:48;;;;;;;3.27;2.10;;;23.80;60.50;;;;;;1898441;75;20965;-67
2022/09/03 06:19:17;;;;;;;5.53;2.12;;;23.80;60.50;;;;;;1898356;75;21380;-67
2022/09/03 06:21:46;;;;;;;2.55;2.10;;;23.90;60.20;;;;;;1898306;75;20958;-67
2022/09/03 06:24:26;;;;;;;6.22;2.50;;;23.90;60.20;;;;;;1898425;75;20969;-67
2022/09/03 06:26:55;;;;;;;7.33;2.30;;;24.00;60.30;;;;;;1898598;75;20981;-67
2022/09/03 06:29:24;;;;;;;4.03;2.10;;;24.10;60.50;;;;;;1898472;75;21031;-67
2022/09/03 06:31:53;;;;;;;5.33;2.77;;;24.20;60.20;;;;;;1898472;75;20965;-67
2022/09/03 06:34:24;;;;;;;7.65;2.47;;;24.30;59.70;;;;;;1898456;75;21066;-67
2022/09/03 06:36:53;;;;;;;10.15;2.55;;;24.40;59.60;;;;;;1898419;75;20969;-67
2022/09/03 06:39:22;;;;;;;6.53;2.77;;;24.40;59.50;;;;;;1898503;75;21391;-67
2022/09/03 06:41:51;;;;;;;6.67;2.50;;;24.50;59.60;;;;;;1898350;75;20981;-67
2022/09/03 06:44:21;;;;;;;12.90;3.70;;;24.50;59.40;;;;;;1897224;75;21028;-67
2022/09/03 06:46:51;;;;;;;4.37;2.42;;;24.60;59.20;;;;;;1898375;75;21467;-67
2022/09/03 06:49:20;;;;;;;4.62;2.58;;;24.70;59.10;;;;;;1898294;75;21001;-67
2022/09/03 06:51:49;;;;;;;5.97;2.60;;;24.70;58.80;;;;;;1898335;75;21442;-67
2022/09/03 06:54:18;;;;;;;5.50;2.95;;;24.70;58.70;;;;;;1898385;75;20989;-67
2022/09/03 06:56:47;;;;;;;7.25;2.65;;;24.80;58.80;;;;;;1898421;75;20989;-67
2022/09/03 06:59:16;;;;;;;6.97;2.67;;;24.80;58.80;;;;;;1898525;75;20977;-67
2022/09/03 07:01:45;;;;;;;7.97;3.02;;;24.90;58.30;;;;;;1898410;75;20978;-67
2022/09/03 07:04:15;;;;;;;5.65;3.05;;;24.90;58.10;;;;;;1898604;75;20937;-67
2022/09/03 07:06:45;;;;;;;7.90;3.40;;;25.00;58.10;;;;;;1898470;75;21074;-67
2022/09/03 07:09:16;;;;;;;7.20;3.00;;;24.90;58.00;;;;;;1898380;75;21036;-67
2022/09/03 07:11:48;;;;;;;5.87;2.95;;;25.00;58.00;;;;;;1898382;75;21051;-67
2022/09/03 07:14:18;;;;;;;10.30;3.00;;;25.10;58.20;;;;;;1898567;75;20977;-67
2022/09/03 07:16:49;;;;;;;13.83;3.25;;;25.20;57.80;;;;;;1898650;75;21380;-67
2022/09/03 07:19:18;;;;;;;5.22;2.87;;;25.30;57.80;;;;;;1898410;75;21055;-67
2022/09/03 07:21:47;;;;;;;5.72;2.47;;;25.40;57.80;;;;;;1898428;75;21485;-67
2022/09/03 07:24:16;;;;;;;6.12;2.60;;;25.50;57.80;;;;;;1898568;75;20961;-67
2022/09/03 07:26:48;;;;;;;4.05;2.62;;;25.60;57.80;;;;;;1898437;75;20989;-67
2022/09/03 07:29:22;;;;;;;4.12;2.80;;;25.60;57.70;;;;;;1898532;75;21047;-67
2022/09/03 07:31:52;;;;;;;9.93;3.15;;;25.70;57.60;;;;;;1897909;75;21054;-67
2022/09/03 07:34:27;;;;;;;5.33;2.52;;;25.80;57.00;;;;;;1898855;75;21031;-67
2022/09/03 07:36:53;;;;;;;6.47;2.80;;;25.80;57.20;;;;;;1897905;75;21483;-67
2022/09/03 07:39:22;;;;;;;4.75;2.70;;;25.80;57.00;;;;;;1898484;75;21013;-67
2022/09/03 07:41:51;;;;;;;4.12;2.72;;;25.90;56.90;;;;;;1898490;75;21455;-67
2022/09/03 07:44:21;;;;;;;8.60;2.62;;;25.90;56.80;;;;;;1898431;75;20981;-67
2022/09/03 07:46:50;;;;;;;5.35;3.20;;;25.90;56.50;;;;;;1898324;75;20985;-67
2022/09/03 07:49:20;;;;;;;7.37;3.15;;;25.90;56.60;;;;;;1898513;75;21039;-67
2022/09/03 07:51:53;;;;;;;10.68;3.30;;;25.90;56.90;;;;;;1866603;75;21092;-67
2022/09/03 07:54:24;;;;;;;5.47;3.00;;;25.90;57.00;;;;;;1898463;75;20968;-67
2022/09/03 07:56:52;;;;;;;6.62;3.20;;;25.90;56.80;;;;;;1898437;75;21059;-67
2022/09/03 07:59:22;;;;;;;6.22;3.10;;;25.90;57.10;;;;;;1898458;75;20985;-67
2022/09/03 08:01:51;;;;;;;7.60;2.83;;;26.00;57.20;;;;;;1898549;75;21481;-67
2022/09/03 08:04:21;;;;;;;6.20;2.75;;;26.10;57.10;;;;;;1898478;75;20989;-67
2022/09/03 08:06:54;;;;;;;10.95;3.80;;;26.10;57.40;;;;;;1898435;75;21035;-67
2022/09/03 08:09:20;;;;;;;8.83;3.10;;;26.20;57.20;;;;;;1897887;75;21039;-67
2022/09/03 08:11:49;;;;;;;69.70;37.80;;;26.30;57.10;;;;;;1898423;75;21024;-67
2022/09/03 08:14:18;;;;;;;6.03;4.08;;;26.30;57.10;;;;;;1898470;75;20953;-67
2022/09/03 08:16:47;;;;;;;7.87;3.17;;;26.40;57.30;;;;;;1898447;75;20985;-67
2022/09/03 08:19:17;;;;;;;9.18;3.40;;;26.50;57.20;;;;;;1898477;75;20965;-67
2022/09/03 08:21:46;;;;;;;9.23;3.33;;;26.60;56.80;;;;;;1898457;75;21508;-67
2022/09/03 08:24:19;;;;;;;10.60;4.05;;;26.60;56.60;;;;;;1898565;75;20981;-67
2022/09/03 08:26:47;;;;;;;6.67;3.17;;;26.60;56.60;;;;;;1898528;75;20993;-67
2022/09/03 08:29:16;;;;;;;9.80;6.12;;;26.50;56.60;;;;;;1898613;75;21395;-67
2022/09/03 08:31:45;;;;;;;9.08;3.65;;;26.60;57.00;;;;;;1898587;75;20974;-67
2022/09/03 08:34:16;;;;;;;10.40;3.83;;;26.60;56.70;;;;;;1898584;75;20965;-67
2022/09/03 08:36:45;;;;;;;5.50;3.62;;;26.60;57.00;;;;;;1898510;75;20969;-67
2022/09/03 08:39:15;;;;;;;8.88;3.70;;;26.60;56.80;;;;;;1898584;75;21427;-67
2022/09/03 08:42:10;;;;;;;10.23;3.65;;;26.70;56.80;;;;;;1898460;75;20974;-67
2022/09/03 08:44:48;;;;;;;22.52;15.95;;;26.70;56.80;;;;;;1898547;75;21075;-67
2022/09/03 08:47:22;;;;;;;7.72;3.50;;;26.90;57.00;;;;;;1898462;75;20985;-67
2022/09/03 08:50:12;;;;;;;15.68;4.53;;;27.00;56.70;;;;;;1898412;75;20961;-67
2022/09/03 08:52:49;;;;;;;6.85;3.70;;;27.00;56.70;;;;;;1898147;75;21048;-67
2022/09/03 08:55:32;;;;;;;12.55;4.00;;;27.10;56.40;;;;;;1898432;75;20993;-67
2022/09/03 08:58:04;;;;;;;7.85;3.50;;;27.10;56.50;;;;;;1898517;75;21447;-67
2022/09/03 09:00:42;;;;;;;7.33;3.85;;;27.20;56.40;;;;;;1898538;75;20965;-67
2022/09/03 09:03:25;;;;;;;8.58;3.67;;;27.20;56.40;;;;;;1844847;75;20953;-67
2022/09/03 09:06:12;;;;;;;8.48;4.12;;;27.20;56.50;;;;;;1898151;75;20977;-67
2022/09/03 09:08:46;;;;;;;9.68;4.12;;;27.20;56.30;;;;;;1864481;75;20973;-67
2022/09/03 09:11:32;;;;;;;10.93;3.77;;;27.20;56.60;;;;;;1898049;75;20961;-67
2022/09/03 09:14:04;;;;;;;10.65;3.85;;;27.20;56.90;;;;;;1897921;75;21043;-67
2022/09/03 09:16:52;;;;;;;7.28;3.58;;;27.30;56.50;;;;;;1897895;75;21041;-67
2022/09/03 09:20:00;;;;;;;7.58;3.25;;;27.30;56.30;;;;;;1898475;75;20962;-67
2022/09/03 09:22:41;;;;;;;12.93;4.35;;;27.40;56.30;;;;;;1898584;75;20941;-67
2022/09/03 09:25:13;;;;;;;6.33;3.22;;;27.40;56.30;;;;;;1896935;75;21090;-67
2022/09/03 09:28:03;;;;;;;7.22;3.27;;;27.50;56.20;;;;;;1898334;75;21075;-67
2022/09/03 09:30:33;;;;;;;9.50;4.35;;;27.60;55.90;;;;;;1898575;75;21036;-67
2022/09/03 09:33:02;;;;;;;15.10;4.15;;;27.70;56.00;;;;;;1898495;75;21054;-67
2022/09/03 09:35:31;;;;;;;6.72;3.85;;;27.70;56.00;;;;;;1898518;75;21395;-67
2022/09/03 09:37:59;;;;;;;8.85;3.98;;;27.80;55.70;;;;;;1898447;75;20977;-67
2022/09/03 09:40:33;;;;;;;8.08;3.87;;;27.80;55.60;;;;;;1898486;75;20965;-67
2022/09/03 09:43:08;;;;;;;9.65;3.90;;;27.80;55.70;;;;;;1898746;75;20989;-67
2022/09/03 09:45:39;;;;;;;6.80;3.50;;;27.80;55.70;;;;;;1898494;75;20961;-67
2022/09/03 09:48:17;;;;;;;6.40;3.02;;;27.80;55.80;;;;;;1898506;75;21114;-67
2022/09/03 09:50:46;;;;;;;6.75;3.35;;;27.90;55.60;;;;;;1898448;75;20977;-67
2022/09/03 09:53:19;;;;;;;8.05;3.50;;;27.90;55.80;;;;;;1898482;75;20985;-67
2022/09/03 09:55:53;;;;;;;5.95;3.70;;;28.00;55.80;;;;;;1898524;75;20945;-67
2022/09/03 09:58:25;;;;;;;5.28;3.50;;;28.10;55.60;;;;;;1898564;75;20993;-67
2022/09/03 10:01:12;;;;;;;13.80;3.87;;;28.10;55.60;;;;;;1898401;75;21075;-67
2022/09/03 10:03:38;;;;;;;6.12;4.03;;;28.10;55.40;;;;;;1896324;75;20949;-67
2022/09/03 10:09:10;;;;;;;5.42;3.47;;;28.10;55.60;;;;;;1898487;75;21403;-67
2022/09/03 10:11:45;;;;;;;7.70;3.67;;;28.20;55.90;;;;;;1898782;75;21043;-68
2022/09/03 10:14:17;;;;;;;5.35;3.40;;;28.20;55.60;;;;;;1898509;75;21623;-67
2022/09/03 10:16:49;;;;;;;16.02;4.35;;;28.30;55.60;;;;;;1898022;75;20985;-68
2022/09/03 10:19:21;;;;;;;15.23;8.58;;;28.30;55.50;;;;;;1898418;75;21016;-68
2022/09/03 10:21:55;;;;;;;10.65;3.70;;;28.40;55.60;;;;;;1898561;75;20957;-68
2022/09/03 10:24:39;;;;;;;6.35;3.92;;;28.40;55.60;;;;;;1898606;75;20985;-68
2022/09/03 10:27:11;;;;;;;7.20;4.10;;;28.40;55.60;;;;;;1898285;75;21431;-68
2022/09/03 10:29:41;;;;;;;4.95;4.42;;;28.50;55.70;;;;;;1898394;75;20981;-67
2022/09/03 10:32:12;;;;;;;5.78;3.80;;;28.50;55.90;;;;;;1898429;75;20973;-68
2022/09/03 10:34:59;;;;;;;9.93;4.28;;;28.60;55.80;;;;;;1897416;75;20985;-68
2022/09/03 10:37:50;;;;;;;11.73;3.92;;;28.60;55.40;;;;;;1898178;75;20985;-68
2022/09/03 10:40:40;;;;;;;8.83;4.42;;;28.70;55.60;;;;;;1898493;75;20981;-68
2022/09/03 10:43:30;;;;;;;16.15;5.00;;;28.80;55.30;;;;;;1855909;75;20981;-68
2022/09/03 10:46:08;;;;;;;11.15;4.15;;;28.80;55.30;;;;;;1849558;75;21381;-68
2022/09/03 10:48:59;;;;;;;11.25;4.20;;;28.90;55.40;;;;;;1898576;75;21091;-68
2022/09/03 10:51:42;;;;;;;15.90;4.30;;;29.00;55.40;;;;;;1898574;75;21416;-68
2022/09/03 10:54:35;;;;;;;7.72;3.98;;;29.10;55.10;;;;;;1898566;75;21039;-68
2022/09/03 10:57:12;;;;;;;9.95;4.20;;;29.10;54.90;;;;;;1898503;75;20961;-68
2022/09/03 11:00:07;;;;;;;6.92;4.58;;;29.10;54.90;;;;;;1898370;75;21070;-68
2022/09/03 11:02:51;;;;;;;15.48;5.20;;;29.20;55.40;;;;;;1898466;75;21388;-68
2022/09/03 11:05:28;;;;;;;10.70;4.67;;;29.20;55.10;;;;;;1898101;75;20989;-67
2022/09/03 11:07:57;;;;;;;14.15;7.33;;;29.30;54.90;;;;;;1897158;75;21054;-68
2022/09/03 11:10:32;;;;;;;12.68;4.62;;;29.30;54.80;;;;;;1898558;75;20957;-68
2022/09/03 11:13:12;;;;;;;12.70;4.50;;;29.30;54.70;;;;;;1898565;75;21044;-68
2022/09/03 11:15:56;;;;;;;8.85;4.15;;;29.30;54.80;;;;;;1898537;74;20961;-68
2022/09/03 11:18:47;;;;;;;22.73;4.42;;;29.40;54.60;;;;;;1886068;75;20976;-68
2022/09/03 11:21:19;;;;;;;9.15;3.95;;;29.40;54.60;;;;;;1898649;75;20957;-68
2022/09/03 11:23:50;;;;;;;7.83;4.10;;;29.40;54.70;;;;;;1898628;75;21079;-68
2022/09/03 11:26:22;;;;;;;7.03;3.60;;;29.50;54.60;;;;;;1898536;75;20965;-67
2022/09/03 11:29:04;;;;;;;8.48;4.15;;;29.60;54.80;;;;;;1898557;75;21039;-68
2022/09/03 11:31:58;;;;;;;8.83;3.80;;;29.60;54.70;;;;;;1898527;75;21039;-68
2022/09/03 11:34:33;;;;;;;9.90;3.98;;;29.60;54.40;;;;;;1898844;75;20949;-68
2022/09/03 11:37:26;;;;;;;7.80;4.55;;;29.60;54.50;;;;;;1898718;75;20985;-68
2022/09/03 11:40:16;;;;;;;6.85;3.77;;;29.70;54.60;;;;;;1898471;75;20972;-68
2022/09/03 11:42:44;;;;;;;8.68;4.00;;;29.70;54.30;;;;;;1898375;75;21014;-68
2022/09/03 11:45:16;;;;;;;10.72;3.90;;;29.80;54.30;;;;;;1898433;75;20989;-67
2022/09/03 11:47:45;;;;;;;8.48;4.03;;;29.80;54.30;;;;;;1898146;75;20989;-68
2022/09/03 11:50:26;;;;;;;6.62;4.12;;;29.80;54.10;;;;;;1898434;75;20953;-68
2022/09/03 11:53:09;;;;;;;8.25;4.25;;;29.90;54.40;;;;;;1898426;75;20961;-67
2022/09/03 11:55:57;;;;;;;8.70;4.28;;;29.90;54.10;;;;;;1884942;75;21024;-68
2022/09/03 11:58:35;;;;;;;10.55;4.58;;;29.90;54.10;;;;;;1898517;75;20973;-67
2022/09/03 12:01:06;;;;;;;10.93;4.50;;;29.90;54.20;;;;;;1898645;75;20993;-67
2022/09/03 12:03:50;;;;;;;8.33;4.33;;;29.90;54.20;;;;;;1898545;75;20985;-68
2022/09/03 12:06:44;;;;;;;8.70;4.10;;;29.80;54.30;;;;;;1897039;75;21386;-67
2022/09/03 12:09:25;;;;;;;7.72;3.80;;;29.80;54.10;;;;;;1897909;75;21391;-67
2022/09/03 12:12:22;;;;;;;12.37;4.62;;;29.90;54.30;;;;;;1896923;75;20981;-67
2022/09/03 12:15:00;;;;;;;15.83;4.05;;;29.90;54.40;;;;;;1898537;75;20973;-67
2022/09/03 12:17:34;;;;;;;7.00;4.50;;;29.90;54.40;;;;;;1840334;75;21047;-67
2022/09/03 12:20:05;;;;;;;6.97;4.78;;;30.00;54.70;;;;;;1895914;75;21059;-67
2022/09/03 12:22:37;;;;;;;8.35;6.05;;;30.00;54.50;;;;;;1897390;75;20988;-68
2022/09/03 12:25:14;;;;;;;9.40;4.15;;;30.10;54.30;;;;;;1898136;75;21411;-68
2022/09/03 12:27:45;;;;;;;7.53;3.83;;;30.10;54.30;;;;;;1898382;75;21090;-67
2022/09/03 12:30:16;;;;;;;7.95;3.92;;;30.20;54.30;;;;;;1898518;75;20969;-68
2022/09/03 12:32:46;;;;;;;8.05;4.37;;;30.20;54.20;;;;;;1898412;75;21035;-68
2022/09/03 12:35:21;;;;;;;9.63;4.22;;;30.20;54.00;;;;;;1898329;75;20965;-68
2022/09/03 12:37:52;;;;;;;8.38;4.45;;;30.30;54.10;;;;;;1898458;75;21043;-67
2022/09/03 12:40:24;;;;;;;7.72;4.62;;;30.30;54.30;;;;;;1898395;75;21021;-67
2022/09/03 12:42:55;;;;;;;11.08;4.33;;;30.30;54.30;;;;;;1898525;75;20964;-67
2022/09/03 12:45:26;;;;;;;11.93;6.22;;;30.30;54.10;;;;;;1898516;75;21051;-67
2022/09/03 12:47:55;;;;;;;13.13;6.37;;;30.30;54.50;;;;;;1898540;75;20981;-67
2022/09/03 12:50:25;;;;;;;9.30;4.87;;;30.30;54.40;;;;;;1898410;75;20949;-67
2022/09/03 12:53:01;;;;;;;8.85;4.37;;;30.30;54.30;;;;;;1898390;75;20965;-68
2022/09/03 12:55:36;;;;;;;5.83;3.90;;;30.30;54.30;;;;;;1898442;75;21435;-68
2022/09/03 12:58:10;;;;;;;7.40;3.90;;;30.30;54.30;;;;;;1898530;75;21449;-68
2022/09/03 13:00:42;;;;;;;13.98;4.20;;;30.30;54.30;;;;;;1894239;75;21005;-68
2022/09/03 13:03:24;;;;;;;11.00;4.70;;;30.30;54.30;;;;;;1892057;76;20985;-68
2022/09/03 13:05:56;;;;;;;13.53;5.03;;;30.30;54.30;;;;;;1891978;76;21051;-68
2022/09/03 13:08:36;;;;;;;9.93;4.67;;;30.30;54.50;;;;;;1891882;76;20965;-68
2022/09/03 13:11:06;;;;;;;8.03;4.92;;;30.30;54.50;;;;;;1891227;76;20989;-68
2022/09/03 13:13:38;;;;;;;10.48;5.15;;;30.30;54.70;;;;;;1891995;76;21431;-68
2022/09/03 13:16:29;;;;;;;8.55;4.55;;;30.30;54.80;;;;;;1891896;76;20969;-68
2022/09/03 13:19:22;;;;;;;18.62;4.75;;;30.30;54.80;;;;;;1891899;76;21036;-68
2022/09/03 13:22:10;;;;;;;7.90;4.42;;;30.40;55.20;;;;;;1891709;75;20957;-68